sensor_id;sensor_type;location;lat;lon;timestamp;P1;durP1;ratioP1;P2;durP2;ratioP2
7080;SDS011;3582;51.506;11.948;2022-07-29T00:00:56;2.67;;;2.20;;
7080;SDS011;3582;51.506;11.948;2022-07-29T00:03:22;4.63;;;2.57;;
7080;SDS011;3582;51.506;11.948;2022-07-29T00:05:48;3.50;;;2.70;;
7080;SDS011;3582;51.506;11.948;2022-07-29T00:08:14;2.63;;;2.43;;
7080;SDS011;3582;51.506;11.948;2022-07-29T00:10:40;4.20;;;2.33;;
7080;SDS011;3582;51.506;11.948;2022-07-29T00:13:06;3.57;;;2.80;;
7080;SDS011;3582;51.506;11.948;2022-07-29T00:15:32;4.33;;;3.07;;
7080;SDS011;3582;51.506;11.948;2022-07-29T00:17:58;6.10;;;2.77;;
7080;SDS011;3582;51.506;11.948;2022-07-29T00:20:24;6.20;;;2.90;;
7080;SDS011;3582;51.506;11.948;2022-07-29T00:22:50;8.50;;;3.10;;
7080;SDS011;3582;51.506;11.948;2022-07-29T00:25:16;3.20;;;2.57;;
7080;SDS011;3582;51.506;11.948;2022-07-29T00:27:42;2.70;;;2.47;;
7080;SDS011;3582;51.506;11.948;2022-07-29T00:30:08;5.30;;;2.43;;
7080;SDS011;3582;51.506;11.948;2022-07-29T00:32:34;5.33;;;2.60;;
7080;SDS011;3582;51.506;11.948;2022-07-29T00:35:00;5.53;;;2.70;;
7080;SDS011;3582;51.506;11.948;2022-07-29T00:37:45;3.97;;;3.00;;
7080;SDS011;3582;51.506;11.948;2022-07-29T00:40:11;4.00;;;2.60;;
7080;SDS011;3582;51.506;11.948;2022-07-29T00:42:44;2.20;;;2.10;;
7080;SDS011;3582;51.506;11.948;2022-07-29T00:45:10;3.30;;;2.17;;
7080;SDS011;3582;51.506;11.948;2022-07-29T00:47:36;5.73;;;2.90;;
7080;SDS011;3582;51.506;11.948;2022-07-29T00:50:03;2.13;;;2.03;;
7080;SDS011;3582;51.506;11.948;2022-07-29T00:52:29;5.80;;;2.33;;
7080;SDS011;3582;51.506;11.948;2022-07-29T00:54:55;6.83;;;3.10;;
7080;SDS011;3582;51.506;11.948;2022-07-29T00:57:21;3.60;;;2.20;;
7080;SDS011;3582;51.506;11.948;2022-07-29T00:59:47;2.17;;;2.00;;
7080;SDS011;3582;51.506;11.948;2022-07-29T01:02:13;3.17;;;2.17;;
7080;SDS011;3582;51.506;11.948;2022-07-29T01:04:39;4.93;;;2.40;;
7080;SDS011;3582;51.506;11.948;2022-07-29T01:07:06;5.30;;;2.90;;
7080;SDS011;3582;51.506;11.948;2022-07-29T01:09:32;3.10;;;2.83;;
7080;SDS011;3582;51.506;11.948;2022-07-29T01:11:59;6.50;;;3.40;;
7080;SDS011;3582;51.506;11.948;2022-07-29T01:14:25;5.33;;;2.97;;
7080;SDS011;3582;51.506;11.948;2022-07-29T01:16:54;6.53;;;2.50;;
7080;SDS011;3582;51.506;11.948;2022-07-29T01:22:13;8.60;;;3.73;;
7080;SDS011;3582;51.506;11.948;2022-07-29T01:24:58;6.33;;;2.47;;
7080;SDS011;3582;51.506;11.948;2022-07-29T01:29:57;7.13;;;2.80;;
7080;SDS011;3582;51.506;11.948;2022-07-29T01:32:28;2.80;;;2.60;;
7080;SDS011;3582;51.506;11.948;2022-07-29T01:37:22;7.40;;;3.23;;
7080;SDS011;3582;51.506;11.948;2022-07-29T01:39:50;6.40;;;2.67;;
7080;SDS011;3582;51.506;11.948;2022-07-29T01:44:54;2.70;;;2.50;;
7080;SDS011;3582;51.506;11.948;2022-07-29T01:47:23;3.77;;;2.90;;
7080;SDS011;3582;51.506;11.948;2022-07-29T01:49:50;2.53;;;2.33;;
7080;SDS011;3582;51.506;11.948;2022-07-29T01:52:21;3.03;;;2.80;;
7080;SDS011;3582;51.506;11.948;2022-07-29T01:54:51;6.67;;;2.80;;
7080;SDS011;3582;51.506;11.948;2022-07-29T01:57:18;3.03;;;2.73;;
7080;SDS011;3582;51.506;11.948;2022-07-29T01:59:45;2.77;;;2.53;;
7080;SDS011;3582;51.506;11.948;2022-07-29T02:02:12;6.40;;;3.73;;
7080;SDS011;3582;51.506;11.948;2022-07-29T02:04:39;3.70;;;2.60;;
7080;SDS011;3582;51.506;11.948;2022-07-29T02:07:06;7.67;;;3.03;;
7080;SDS011;3582;51.506;11.948;2022-07-29T02:09:33;2.80;;;2.70;;
7080;SDS011;3582;51.506;11.948;2022-07-29T02:12:00;2.60;;;2.20;;
7080;SDS011;3582;51.506;11.948;2022-07-29T02:14:28;6.53;;;2.67;;
7080;SDS011;3582;51.506;11.948;2022-07-29T02:16:55;4.43;;;3.07;;
7080;SDS011;3582;51.506;11.948;2022-07-29T02:19:21;6.40;;;3.37;;
7080;SDS011;3582;51.506;11.948;2022-07-29T02:21:49;5.90;;;3.13;;
7080;SDS011;3582;51.506;11.948;2022-07-29T02:24:17;6.10;;;2.93;;
7080;SDS011;3582;51.506;11.948;2022-07-29T02:26:43;6.57;;;2.87;;
7080;SDS011;3582;51.506;11.948;2022-07-29T02:29:10;7.47;;;3.13;;
7080;SDS011;3582;51.506;11.948;2022-07-29T02:31:38;3.80;;;2.80;;
7080;SDS011;3582;51.506;11.948;2022-07-29T02:34:06;6.70;;;3.27;;
7080;SDS011;3582;51.506;11.948;2022-07-29T02:36:32;7.97;;;3.10;;
7080;SDS011;3582;51.506;11.948;2022-07-29T02:38:59;5.67;;;3.10;;
7080;SDS011;3582;51.506;11.948;2022-07-29T02:41:30;3.27;;;2.77;;
7080;SDS011;3582;51.506;11.948;2022-07-29T02:44:02;5.63;;;3.33;;
7080;SDS011;3582;51.506;11.948;2022-07-29T02:46:30;7.03;;;3.47;;
7080;SDS011;3582;51.506;11.948;2022-07-29T02:49:07;4.50;;;3.07;;
7080;SDS011;3582;51.506;11.948;2022-07-29T02:51:45;8.50;;;3.23;;
7080;SDS011;3582;51.506;11.948;2022-07-29T02:56:57;5.70;;;2.97;;
7080;SDS011;3582;51.506;11.948;2022-07-29T02:59:24;7.00;;;3.50;;
7080;SDS011;3582;51.506;11.948;2022-07-29T03:01:52;6.07;;;3.27;;
7080;SDS011;3582;51.506;11.948;2022-07-29T03:04:19;3.00;;;2.73;;
7080;SDS011;3582;51.506;11.948;2022-07-29T03:06:46;3.27;;;2.97;;
7080;SDS011;3582;51.506;11.948;2022-07-29T03:09:13;6.87;;;4.03;;
7080;SDS011;3582;51.506;11.948;2022-07-29T03:11:40;7.10;;;3.20;;
7080;SDS011;3582;51.506;11.948;2022-07-29T03:14:06;3.93;;;3.63;;
7080;SDS011;3582;51.506;11.948;2022-07-29T03:16:33;2.83;;;2.53;;
7080;SDS011;3582;51.506;11.948;2022-07-29T03:19:01;8.27;;;3.50;;
7080;SDS011;3582;51.506;11.948;2022-07-29T03:21:27;4.07;;;3.60;;
7080;SDS011;3582;51.506;11.948;2022-07-29T03:23:53;4.80;;;3.17;;
7080;SDS011;3582;51.506;11.948;2022-07-29T03:26:19;7.40;;;3.20;;
7080;SDS011;3582;51.506;11.948;2022-07-29T03:28:45;3.60;;;2.93;;
7080;SDS011;3582;51.506;11.948;2022-07-29T03:31:11;5.70;;;4.03;;
7080;SDS011;3582;51.506;11.948;2022-07-29T03:33:37;11.07;;;3.60;;
7080;SDS011;3582;51.506;11.948;2022-07-29T03:36:03;5.30;;;3.37;;
7080;SDS011;3582;51.506;11.948;2022-07-29T03:38:30;4.50;;;3.03;;
7080;SDS011;3582;51.506;11.948;2022-07-29T03:41:00;4.03;;;3.03;;
7080;SDS011;3582;51.506;11.948;2022-07-29T03:43:28;4.43;;;2.87;;
7080;SDS011;3582;51.506;11.948;2022-07-29T03:45:56;4.80;;;3.90;;
7080;SDS011;3582;51.506;11.948;2022-07-29T03:48:23;7.70;;;4.00;;
7080;SDS011;3582;51.506;11.948;2022-07-29T03:50:49;4.77;;;3.20;;
7080;SDS011;3582;51.506;11.948;2022-07-29T03:53:16;4.43;;;2.53;;
7080;SDS011;3582;51.506;11.948;2022-07-29T03:55:45;3.07;;;2.83;;
7080;SDS011;3582;51.506;11.948;2022-07-29T03:58:13;4.43;;;3.30;;
7080;SDS011;3582;51.506;11.948;2022-07-29T04:00:39;9.77;;;4.07;;
7080;SDS011;3582;51.506;11.948;2022-07-29T04:03:05;5.47;;;3.07;;
7080;SDS011;3582;51.506;11.948;2022-07-29T04:05:31;4.73;;;2.80;;
7080;SDS011;3582;51.506;11.948;2022-07-29T04:07:57;6.40;;;3.17;;
7080;SDS011;3582;51.506;11.948;2022-07-29T04:10:23;5.33;;;3.30;;
7080;SDS011;3582;51.506;11.948;2022-07-29T04:12:49;3.97;;;3.17;;
7080;SDS011;3582;51.506;11.948;2022-07-29T04:15:15;3.50;;;3.17;;
7080;SDS011;3582;51.506;11.948;2022-07-29T04:17:41;3.80;;;3.30;;
7080;SDS011;3582;51.506;11.948;2022-07-29T04:20:08;3.73;;;3.43;;
7080;SDS011;3582;51.506;11.948;2022-07-29T04:22:34;7.43;;;3.10;;
7080;SDS011;3582;51.506;11.948;2022-07-29T04:25:00;13.77;;;4.37;;
7080;SDS011;3582;51.506;11.948;2022-07-29T04:27:26;8.83;;;5.20;;
7080;SDS011;3582;51.506;11.948;2022-07-29T04:29:52;6.23;;;2.90;;
7080;SDS011;3582;51.506;11.948;2022-07-29T04:32:18;12.17;;;3.77;;
7080;SDS011;3582;51.506;11.948;2022-07-29T04:34:43;6.87;;;3.03;;
7080;SDS011;3582;51.506;11.948;2022-07-29T04:37:11;3.77;;;3.57;;
7080;SDS011;3582;51.506;11.948;2022-07-29T04:39:37;4.03;;;3.37;;
7080;SDS011;3582;51.506;11.948;2022-07-29T04:42:03;4.50;;;3.47;;
7080;SDS011;3582;51.506;11.948;2022-07-29T04:44:29;5.43;;;3.10;;
7080;SDS011;3582;51.506;11.948;2022-07-29T04:46:55;3.73;;;3.00;;
7080;SDS011;3582;51.506;11.948;2022-07-29T04:49:21;4.53;;;4.23;;
7080;SDS011;3582;51.506;11.948;2022-07-29T04:51:47;5.87;;;4.47;;
7080;SDS011;3582;51.506;11.948;2022-07-29T04:54:13;7.50;;;3.57;;
7080;SDS011;3582;51.506;11.948;2022-07-29T04:56:39;3.77;;;2.90;;
7080;SDS011;3582;51.506;11.948;2022-07-29T04:59:06;6.23;;;4.00;;
7080;SDS011;3582;51.506;11.948;2022-07-29T05:01:32;6.47;;;3.03;;
7080;SDS011;3582;51.506;11.948;2022-07-29T05:03:58;7.10;;;3.67;;
7080;SDS011;3582;51.506;11.948;2022-07-29T05:06:24;6.07;;;4.23;;
7080;SDS011;3582;51.506;11.948;2022-07-29T05:08:50;3.77;;;3.47;;
7080;SDS011;3582;51.506;11.948;2022-07-29T05:11:16;5.13;;;3.63;;
7080;SDS011;3582;51.506;11.948;2022-07-29T05:13:42;7.30;;;2.90;;
7080;SDS011;3582;51.506;11.948;2022-07-29T05:16:08;14.30;;;3.57;;
7080;SDS011;3582;51.506;11.948;2022-07-29T05:18:34;33.50;;;4.50;;
7080;SDS011;3582;51.506;11.948;2022-07-29T05:21:00;8.30;;;3.80;;
7080;SDS011;3582;51.506;11.948;2022-07-29T05:23:26;17.80;;;4.33;;
7080;SDS011;3582;51.506;11.948;2022-07-29T05:25:52;7.83;;;3.73;;
7080;SDS011;3582;51.506;11.948;2022-07-29T05:28:18;12.53;;;5.40;;
7080;SDS011;3582;51.506;11.948;2022-07-29T05:30:44;10.90;;;3.90;;
7080;SDS011;3582;51.506;11.948;2022-07-29T05:33:10;5.30;;;3.30;;
7080;SDS011;3582;51.506;11.948;2022-07-29T05:35:36;8.90;;;3.33;;
7080;SDS011;3582;51.506;11.948;2022-07-29T05:38:02;5.87;;;3.90;;
7080;SDS011;3582;51.506;11.948;2022-07-29T05:40:28;10.87;;;3.57;;
7080;SDS011;3582;51.506;11.948;2022-07-29T05:42:54;6.80;;;3.57;;
7080;SDS011;3582;51.506;11.948;2022-07-29T05:45:20;7.80;;;3.23;;
7080;SDS011;3582;51.506;11.948;2022-07-29T05:47:46;7.43;;;4.00;;
7080;SDS011;3582;51.506;11.948;2022-07-29T05:50:12;4.57;;;4.17;;
7080;SDS011;3582;51.506;11.948;2022-07-29T05:52:38;4.87;;;3.40;;
7080;SDS011;3582;51.506;11.948;2022-07-29T05:55:04;5.53;;;3.90;;
7080;SDS011;3582;51.506;11.948;2022-07-29T05:57:31;7.30;;;3.30;;
7080;SDS011;3582;51.506;11.948;2022-07-29T05:59:57;4.30;;;3.00;;
7080;SDS011;3582;51.506;11.948;2022-07-29T06:02:23;11.77;;;4.33;;
7080;SDS011;3582;51.506;11.948;2022-07-29T06:04:49;4.80;;;3.33;;
7080;SDS011;3582;51.506;11.948;2022-07-29T06:07:15;6.33;;;3.57;;
7080;SDS011;3582;51.506;11.948;2022-07-29T06:09:41;6.03;;;3.93;;
7080;SDS011;3582;51.506;11.948;2022-07-29T06:12:07;6.93;;;3.50;;
7080;SDS011;3582;51.506;11.948;2022-07-29T06:14:34;3.20;;;2.87;;
7080;SDS011;3582;51.506;11.948;2022-07-29T06:17:00;4.80;;;2.87;;
7080;SDS011;3582;51.506;11.948;2022-07-29T06:19:26;5.13;;;3.33;;
7080;SDS011;3582;51.506;11.948;2022-07-29T06:21:52;4.93;;;3.57;;
7080;SDS011;3582;51.506;11.948;2022-07-29T06:24:19;3.43;;;3.13;;
7080;SDS011;3582;51.506;11.948;2022-07-29T06:26:45;4.17;;;3.43;;
7080;SDS011;3582;51.506;11.948;2022-07-29T06:29:11;5.30;;;2.70;;
7080;SDS011;3582;51.506;11.948;2022-07-29T06:31:37;7.67;;;4.10;;
7080;SDS011;3582;51.506;11.948;2022-07-29T06:34:03;11.70;;;3.47;;
7080;SDS011;3582;51.506;11.948;2022-07-29T06:36:29;12.07;;;3.80;;
7080;SDS011;3582;51.506;11.948;2022-07-29T06:38:55;4.80;;;2.60;;
7080;SDS011;3582;51.506;11.948;2022-07-29T06:41:21;7.10;;;3.43;;
7080;SDS011;3582;51.506;11.948;2022-07-29T06:43:48;5.90;;;3.30;;
7080;SDS011;3582;51.506;11.948;2022-07-29T06:46:16;7.73;;;4.50;;
7080;SDS011;3582;51.506;11.948;2022-07-29T06:48:43;6.03;;;3.40;;
7080;SDS011;3582;51.506;11.948;2022-07-29T06:51:09;4.07;;;3.77;;
7080;SDS011;3582;51.506;11.948;2022-07-29T06:53:36;4.50;;;3.23;;
7080;SDS011;3582;51.506;11.948;2022-07-29T06:56:02;8.23;;;4.03;;
7080;SDS011;3582;51.506;11.948;2022-07-29T06:58:29;3.97;;;3.47;;
7080;SDS011;3582;51.506;11.948;2022-07-29T07:00:55;4.73;;;3.80;;
7080;SDS011;3582;51.506;11.948;2022-07-29T07:03:21;6.40;;;3.83;;
7080;SDS011;3582;51.506;11.948;2022-07-29T07:05:48;3.73;;;2.80;;
7080;SDS011;3582;51.506;11.948;2022-07-29T07:08:14;18.70;;;4.87;;
7080;SDS011;3582;51.506;11.948;2022-07-29T07:10:44;5.03;;;3.07;;
7080;SDS011;3582;51.506;11.948;2022-07-29T07:13:10;3.83;;;2.83;;
7080;SDS011;3582;51.506;11.948;2022-07-29T07:15:36;5.23;;;3.60;;
7080;SDS011;3582;51.506;11.948;2022-07-29T07:18:03;9.87;;;3.37;;
7080;SDS011;3582;51.506;11.948;2022-07-29T07:20:29;4.73;;;3.80;;
7080;SDS011;3582;51.506;11.948;2022-07-29T07:22:55;10.80;;;4.10;;
7080;SDS011;3582;51.506;11.948;2022-07-29T07:25:21;6.80;;;4.53;;
7080;SDS011;3582;51.506;11.948;2022-07-29T07:27:47;3.37;;;2.90;;
7080;SDS011;3582;51.506;11.948;2022-07-29T07:30:13;7.87;;;3.10;;
7080;SDS011;3582;51.506;11.948;2022-07-29T07:32:39;4.47;;;3.30;;
7080;SDS011;3582;51.506;11.948;2022-07-29T07:35:05;11.37;;;3.50;;
7080;SDS011;3582;51.506;11.948;2022-07-29T07:37:32;6.20;;;3.97;;
7080;SDS011;3582;51.506;11.948;2022-07-29T07:39:58;7.07;;;3.43;;
7080;SDS011;3582;51.506;11.948;2022-07-29T07:42:24;7.60;;;3.77;;
7080;SDS011;3582;51.506;11.948;2022-07-29T07:44:50;6.57;;;4.20;;
7080;SDS011;3582;51.506;11.948;2022-07-29T07:47:16;9.67;;;4.00;;
7080;SDS011;3582;51.506;11.948;2022-07-29T07:49:48;7.53;;;3.67;;
7080;SDS011;3582;51.506;11.948;2022-07-29T07:52:15;5.00;;;3.57;;
7080;SDS011;3582;51.506;11.948;2022-07-29T07:54:41;5.90;;;3.90;;
7080;SDS011;3582;51.506;11.948;2022-07-29T07:57:11;7.20;;;4.10;;
7080;SDS011;3582;51.506;11.948;2022-07-29T07:59:37;8.40;;;5.60;;
7080;SDS011;3582;51.506;11.948;2022-07-29T08:02:03;13.00;;;7.00;;
7080;SDS011;3582;51.506;11.948;2022-07-29T08:04:29;7.10;;;5.93;;
7080;SDS011;3582;51.506;11.948;2022-07-29T08:06:56;12.63;;;7.57;;
7080;SDS011;3582;51.506;11.948;2022-07-29T08:09:22;7.07;;;5.57;;
7080;SDS011;3582;51.506;11.948;2022-07-29T08:11:48;10.43;;;6.57;;
7080;SDS011;3582;51.506;11.948;2022-07-29T08:14:14;12.60;;;6.00;;
7080;SDS011;3582;51.506;11.948;2022-07-29T08:16:40;7.20;;;6.13;;
7080;SDS011;3582;51.506;11.948;2022-07-29T08:19:07;7.60;;;5.70;;
7080;SDS011;3582;51.506;11.948;2022-07-29T08:21:33;9.50;;;5.53;;
7080;SDS011;3582;51.506;11.948;2022-07-29T08:23:59;7.80;;;5.20;;
7080;SDS011;3582;51.506;11.948;2022-07-29T08:26:43;8.63;;;5.07;;
7080;SDS011;3582;51.506;11.948;2022-07-29T08:29:09;7.53;;;5.30;;
7080;SDS011;3582;51.506;11.948;2022-07-29T08:31:36;10.57;;;4.90;;
7080;SDS011;3582;51.506;11.948;2022-07-29T08:34:02;10.87;;;5.83;;
7080;SDS011;3582;51.506;11.948;2022-07-29T08:36:29;9.10;;;5.80;;
7080;SDS011;3582;51.506;11.948;2022-07-29T08:38:55;8.13;;;5.60;;
7080;SDS011;3582;51.506;11.948;2022-07-29T08:41:21;5.37;;;4.87;;
7080;SDS011;3582;51.506;11.948;2022-07-29T08:43:47;10.40;;;5.40;;
7080;SDS011;3582;51.506;11.948;2022-07-29T08:46:13;9.57;;;5.37;;
7080;SDS011;3582;51.506;11.948;2022-07-29T08:48:40;5.10;;;4.60;;
7080;SDS011;3582;51.506;11.948;2022-07-29T08:51:07;11.77;;;5.90;;
7080;SDS011;3582;51.506;11.948;2022-07-29T08:53:33;5.00;;;4.70;;
7080;SDS011;3582;51.506;11.948;2022-07-29T08:56:02;5.07;;;4.57;;
7080;SDS011;3582;51.506;11.948;2022-07-29T08:58:31;10.90;;;5.77;;
7080;SDS011;3582;51.506;11.948;2022-07-29T09:00:57;11.87;;;5.43;;
7080;SDS011;3582;51.506;11.948;2022-07-29T09:03:29;10.83;;;5.80;;
7080;SDS011;3582;51.506;11.948;2022-07-29T09:05:56;10.87;;;5.53;;
7080;SDS011;3582;51.506;11.948;2022-07-29T09:08:22;10.30;;;5.43;;
7080;SDS011;3582;51.506;11.948;2022-07-29T09:10:48;7.27;;;5.47;;
7080;SDS011;3582;51.506;11.948;2022-07-29T09:13:14;12.67;;;5.30;;
7080;SDS011;3582;51.506;11.948;2022-07-29T09:15:40;15.10;;;4.83;;
7080;SDS011;3582;51.506;11.948;2022-07-29T09:18:06;8.53;;;5.30;;
7080;SDS011;3582;51.506;11.948;2022-07-29T09:20:32;6.57;;;4.93;;
7080;SDS011;3582;51.506;11.948;2022-07-29T09:23:16;8.00;;;5.10;;
7080;SDS011;3582;51.506;11.948;2022-07-29T09:25:42;4.60;;;4.23;;
7080;SDS011;3582;51.506;11.948;2022-07-29T09:28:09;5.50;;;4.60;;
7080;SDS011;3582;51.506;11.948;2022-07-29T09:30:36;9.33;;;3.87;;
7080;SDS011;3582;51.506;11.948;2022-07-29T09:33:04;4.90;;;3.83;;
7080;SDS011;3582;51.506;11.948;2022-07-29T09:35:30;5.77;;;4.70;;
7080;SDS011;3582;51.506;11.948;2022-07-29T09:37:56;4.20;;;3.80;;
7080;SDS011;3582;51.506;11.948;2022-07-29T09:40:27;4.53;;;4.20;;
7080;SDS011;3582;51.506;11.948;2022-07-29T09:42:53;7.03;;;4.00;;
7080;SDS011;3582;51.506;11.948;2022-07-29T09:45:26;10.27;;;4.67;;
7080;SDS011;3582;51.506;11.948;2022-07-29T09:47:53;9.73;;;3.70;;
7080;SDS011;3582;51.506;11.948;2022-07-29T09:50:20;8.33;;;3.97;;
7080;SDS011;3582;51.506;11.948;2022-07-29T09:52:52;7.43;;;5.23;;
7080;SDS011;3582;51.506;11.948;2022-07-29T09:55:18;16.07;;;5.17;;
7080;SDS011;3582;51.506;11.948;2022-07-29T09:57:45;7.00;;;3.93;;
7080;SDS011;3582;51.506;11.948;2022-07-29T10:00:13;7.53;;;3.60;;
7080;SDS011;3582;51.506;11.948;2022-07-29T10:02:43;8.50;;;4.33;;
7080;SDS011;3582;51.506;11.948;2022-07-29T10:05:16;9.20;;;4.50;;
7080;SDS011;3582;51.506;11.948;2022-07-29T10:07:47;6.10;;;3.60;;
7080;SDS011;3582;51.506;11.948;2022-07-29T10:10:26;5.57;;;3.80;;
7080;SDS011;3582;51.506;11.948;2022-07-29T10:12:54;9.33;;;3.30;;
7080;SDS011;3582;51.506;11.948;2022-07-29T10:15:24;11.30;;;3.93;;
7080;SDS011;3582;51.506;11.948;2022-07-29T10:17:50;3.97;;;3.57;;
7080;SDS011;3582;51.506;11.948;2022-07-29T10:20:17;7.00;;;4.27;;
7080;SDS011;3582;51.506;11.948;2022-07-29T10:22:43;7.00;;;3.40;;
7080;SDS011;3582;51.506;11.948;2022-07-29T10:25:11;4.27;;;3.57;;
7080;SDS011;3582;51.506;11.948;2022-07-29T10:27:37;8.23;;;4.10;;
7080;SDS011;3582;51.506;11.948;2022-07-29T10:30:04;4.20;;;3.40;;
7080;SDS011;3582;51.506;11.948;2022-07-29T10:38:02;3.70;;;3.40;;
7080;SDS011;3582;51.506;11.948;2022-07-29T10:43:22;7.63;;;5.13;;
7080;SDS011;3582;51.506;11.948;2022-07-29T10:45:49;5.00;;;4.50;;
7080;SDS011;3582;51.506;11.948;2022-07-29T10:48:20;7.00;;;4.57;;
7080;SDS011;3582;51.506;11.948;2022-07-29T10:51:19;4.03;;;3.60;;
7080;SDS011;3582;51.506;11.948;2022-07-29T10:53:45;6.00;;;4.10;;
7080;SDS011;3582;51.506;11.948;2022-07-29T10:56:27;6.03;;;5.40;;
7080;SDS011;3582;51.506;11.948;2022-07-29T11:01:38;6.37;;;4.47;;
7080;SDS011;3582;51.506;11.948;2022-07-29T11:04:04;13.53;;;4.43;;
7080;SDS011;3582;51.506;11.948;2022-07-29T11:09:16;4.83;;;4.43;;
7080;SDS011;3582;51.506;11.948;2022-07-29T11:11:43;8.40;;;4.40;;
7080;SDS011;3582;51.506;11.948;2022-07-29T11:14:10;6.07;;;4.00;;
7080;SDS011;3582;51.506;11.948;2022-07-29T11:19:21;6.40;;;3.63;;
7080;SDS011;3582;51.506;11.948;2022-07-29T11:21:47;5.87;;;4.20;;
7080;SDS011;3582;51.506;11.948;2022-07-29T11:24:24;4.03;;;3.63;;
7080;SDS011;3582;51.506;11.948;2022-07-29T11:29:56;4.27;;;3.93;;
7080;SDS011;3582;51.506;11.948;2022-07-29T11:32:23;6.13;;;4.83;;
7080;SDS011;3582;51.506;11.948;2022-07-29T11:34:50;3.83;;;3.40;;
7080;SDS011;3582;51.506;11.948;2022-07-29T11:37:35;8.90;;;5.00;;
7080;SDS011;3582;51.506;11.948;2022-07-29T11:44:59;5.60;;;3.30;;
7080;SDS011;3582;51.506;11.948;2022-07-29T11:47:26;8.10;;;3.20;;
7080;SDS011;3582;51.506;11.948;2022-07-29T11:49:53;11.00;;;4.00;;
7080;SDS011;3582;51.506;11.948;2022-07-29T11:52:19;6.73;;;3.20;;
7080;SDS011;3582;51.506;11.948;2022-07-29T11:54:47;3.57;;;3.37;;
7080;SDS011;3582;51.506;11.948;2022-07-29T11:57:14;3.30;;;3.00;;
7080;SDS011;3582;51.506;11.948;2022-07-29T11:59:42;3.57;;;3.03;;
7080;SDS011;3582;51.506;11.948;2022-07-29T12:02:08;5.80;;;3.53;;
7080;SDS011;3582;51.506;11.948;2022-07-29T12:04:48;7.60;;;3.30;;
7080;SDS011;3582;51.506;11.948;2022-07-29T12:07:14;5.43;;;3.43;;
7080;SDS011;3582;51.506;11.948;2022-07-29T12:09:40;4.23;;;3.93;;
7080;SDS011;3582;51.506;11.948;2022-07-29T12:12:15;4.17;;;3.57;;
7080;SDS011;3582;51.506;11.948;2022-07-29T12:14:42;7.63;;;4.23;;
7080;SDS011;3582;51.506;11.948;2022-07-29T12:17:24;3.97;;;3.67;;
7080;SDS011;3582;51.506;11.948;2022-07-29T12:19:51;4.40;;;4.00;;
7080;SDS011;3582;51.506;11.948;2022-07-29T12:22:27;3.90;;;3.50;;
7080;SDS011;3582;51.506;11.948;2022-07-29T12:24:54;5.77;;;3.10;;
7080;SDS011;3582;51.506;11.948;2022-07-29T12:27:20;10.27;;;4.40;;
7080;SDS011;3582;51.506;11.948;2022-07-29T12:29:59;3.60;;;3.30;;
7080;SDS011;3582;51.506;11.948;2022-07-29T12:32:36;4.33;;;3.27;;
7080;SDS011;3582;51.506;11.948;2022-07-29T12:35:04;3.50;;;3.30;;
7080;SDS011;3582;51.506;11.948;2022-07-29T12:37:31;3.90;;;3.57;;
7080;SDS011;3582;51.506;11.948;2022-07-29T12:39:58;11.70;;;3.93;;
7080;SDS011;3582;51.506;11.948;2022-07-29T12:42:24;6.80;;;6.07;;
7080;SDS011;3582;51.506;11.948;2022-07-29T12:44:50;4.33;;;3.60;;
7080;SDS011;3582;51.506;11.948;2022-07-29T12:47:19;5.67;;;3.50;;
7080;SDS011;3582;51.506;11.948;2022-07-29T12:49:45;3.60;;;3.30;;
7080;SDS011;3582;51.506;11.948;2022-07-29T12:52:24;4.23;;;3.83;;
7080;SDS011;3582;51.506;11.948;2022-07-29T12:54:50;4.17;;;3.83;;
7080;SDS011;3582;51.506;11.948;2022-07-29T12:57:16;4.37;;;3.60;;
7080;SDS011;3582;51.506;11.948;2022-07-29T12:59:42;3.77;;;3.57;;
7080;SDS011;3582;51.506;11.948;2022-07-29T13:02:19;7.00;;;3.83;;
7080;SDS011;3582;51.506;11.948;2022-07-29T13:04:54;8.20;;;3.60;;
7080;SDS011;3582;51.506;11.948;2022-07-29T13:07:23;3.30;;;3.00;;
7080;SDS011;3582;51.506;11.948;2022-07-29T13:09:49;9.77;;;4.53;;
7080;SDS011;3582;51.506;11.948;2022-07-29T13:12:15;4.03;;;3.73;;
7080;SDS011;3582;51.506;11.948;2022-07-29T13:14:45;6.00;;;5.13;;
7080;SDS011;3582;51.506;11.948;2022-07-29T13:17:15;3.90;;;3.50;;
7080;SDS011;3582;51.506;11.948;2022-07-29T13:19:48;5.73;;;3.30;;
7080;SDS011;3582;51.506;11.948;2022-07-29T13:22:23;5.60;;;3.70;;
7080;SDS011;3582;51.506;11.948;2022-07-29T13:24:50;6.40;;;3.67;;
7080;SDS011;3582;51.506;11.948;2022-07-29T13:27:17;3.43;;;3.20;;
7080;SDS011;3582;51.506;11.948;2022-07-29T13:29:44;3.90;;;3.60;;
7080;SDS011;3582;51.506;11.948;2022-07-29T13:32:10;4.60;;;4.20;;
7080;SDS011;3582;51.506;11.948;2022-07-29T13:34:36;3.63;;;3.37;;
7080;SDS011;3582;51.506;11.948;2022-07-29T13:37:02;5.30;;;4.47;;
7080;SDS011;3582;51.506;11.948;2022-07-29T13:39:28;4.47;;;4.07;;
7080;SDS011;3582;51.506;11.948;2022-07-29T13:41:55;4.40;;;3.93;;
7080;SDS011;3582;51.506;11.948;2022-07-29T13:44:21;7.23;;;4.50;;
7080;SDS011;3582;51.506;11.948;2022-07-29T13:46:47;4.13;;;3.47;;
7080;SDS011;3582;51.506;11.948;2022-07-29T13:49:12;5.67;;;3.40;;
7080;SDS011;3582;51.506;11.948;2022-07-29T13:51:40;4.30;;;3.50;;
7080;SDS011;3582;51.506;11.948;2022-07-29T13:54:06;9.30;;;4.87;;
7080;SDS011;3582;51.506;11.948;2022-07-29T13:56:31;5.33;;;3.30;;
7080;SDS011;3582;51.506;11.948;2022-07-29T13:58:57;4.87;;;3.70;;
7080;SDS011;3582;51.506;11.948;2022-07-29T14:01:24;6.23;;;3.67;;
7080;SDS011;3582;51.506;11.948;2022-07-29T14:03:50;9.67;;;3.77;;
7080;SDS011;3582;51.506;11.948;2022-07-29T14:06:16;3.40;;;3.10;;
7080;SDS011;3582;51.506;11.948;2022-07-29T14:08:42;7.07;;;4.40;;
7080;SDS011;3582;51.506;11.948;2022-07-29T14:11:08;7.73;;;3.97;;
7080;SDS011;3582;51.506;11.948;2022-07-29T14:13:34;8.53;;;4.03;;
7080;SDS011;3582;51.506;11.948;2022-07-29T14:16:00;8.07;;;3.70;;
7080;SDS011;3582;51.506;11.948;2022-07-29T14:18:26;4.13;;;3.70;;
7080;SDS011;3582;51.506;11.948;2022-07-29T14:20:52;4.60;;;3.40;;
7080;SDS011;3582;51.506;11.948;2022-07-29T14:23:18;3.80;;;3.50;;
7080;SDS011;3582;51.506;11.948;2022-07-29T14:25:44;5.90;;;4.30;;
7080;SDS011;3582;51.506;11.948;2022-07-29T14:28:10;4.33;;;3.93;;
7080;SDS011;3582;51.506;11.948;2022-07-29T14:30:36;4.60;;;3.60;;
7080;SDS011;3582;51.506;11.948;2022-07-29T14:33:02;9.53;;;4.40;;
7080;SDS011;3582;51.506;11.948;2022-07-29T14:35:28;5.87;;;3.83;;
7080;SDS011;3582;51.506;11.948;2022-07-29T14:37:54;8.37;;;4.00;;
7080;SDS011;3582;51.506;11.948;2022-07-29T14:40:20;3.73;;;3.43;;
7080;SDS011;3582;51.506;11.948;2022-07-29T14:42:46;4.43;;;4.13;;
7080;SDS011;3582;51.506;11.948;2022-07-29T14:45:12;6.27;;;4.50;;
7080;SDS011;3582;51.506;11.948;2022-07-29T14:47:38;3.87;;;3.57;;
7080;SDS011;3582;51.506;11.948;2022-07-29T14:50:04;4.60;;;4.20;;
7080;SDS011;3582;51.506;11.948;2022-07-29T14:52:30;4.40;;;3.37;;
7080;SDS011;3582;51.506;11.948;2022-07-29T14:54:56;7.97;;;4.30;;
7080;SDS011;3582;51.506;11.948;2022-07-29T14:57:22;5.50;;;4.23;;
7080;SDS011;3582;51.506;11.948;2022-07-29T14:59:48;7.00;;;3.70;;
7080;SDS011;3582;51.506;11.948;2022-07-29T15:02:14;3.80;;;3.37;;
7080;SDS011;3582;51.506;11.948;2022-07-29T15:04:40;4.67;;;3.40;;
7080;SDS011;3582;51.506;11.948;2022-07-29T15:07:06;5.20;;;3.97;;
7080;SDS011;3582;51.506;11.948;2022-07-29T15:09:33;4.63;;;3.83;;
7080;SDS011;3582;51.506;11.948;2022-07-29T15:11:59;7.33;;;3.50;;
7080;SDS011;3582;51.506;11.948;2022-07-29T15:14:25;4.67;;;3.63;;
7080;SDS011;3582;51.506;11.948;2022-07-29T15:16:51;4.40;;;4.07;;
7080;SDS011;3582;51.506;11.948;2022-07-29T15:19:16;8.33;;;4.23;;
7080;SDS011;3582;51.506;11.948;2022-07-29T15:21:42;5.80;;;4.17;;
7080;SDS011;3582;51.506;11.948;2022-07-29T15:24:08;3.97;;;3.57;;
7080;SDS011;3582;51.506;11.948;2022-07-29T15:26:34;10.70;;;4.17;;
7080;SDS011;3582;51.506;11.948;2022-07-29T15:29:00;5.20;;;4.30;;
7080;SDS011;3582;51.506;11.948;2022-07-29T15:31:26;3.83;;;3.53;;
7080;SDS011;3582;51.506;11.948;2022-07-29T15:33:52;14.87;;;4.63;;
7080;SDS011;3582;51.506;11.948;2022-07-29T15:36:18;4.10;;;3.80;;
7080;SDS011;3582;51.506;11.948;2022-07-29T15:38:44;3.50;;;3.13;;